createdAt,value
2018-02-20T00:02:00.237Z,66.40
2018-02-20T00:04:28.592Z,58.63
2018-02-20T00:06:56.993Z,67.57
2018-02-20T00:09:25.384Z,65.27
2018-02-20T00:11:53.721Z,67.80
2018-02-20T00:14:22.105Z,71.10
2018-02-20T00:16:50.530Z,78.13
2018-02-20T00:19:18.907Z,60.93
2018-02-20T00:21:47.342Z,69.20
2018-02-20T00:24:15.713Z,58.30
2018-02-20T00:26:44.072Z,64.50
2018-02-20T00:29:12.412Z,69.67
2018-02-20T00:31:40.787Z,71.70
2018-02-20T00:34:09.134Z,74.97
2018-02-20T00:36:37.482Z,59.40
2018-02-20T00:39:05.813Z,60.80
2018-02-20T00:41:34.213Z,72.07
2018-02-20T00:44:02.561Z,60.83
2018-02-20T00:46:30.974Z,60.20
2018-02-20T00:48:59.439Z,62.90
2018-02-20T00:51:27.820Z,74.23
2018-02-20T00:53:56.187Z,64.07
2018-02-20T00:56:24.577Z,65.13
2018-02-20T00:58:52.915Z,71.60
2018-02-20T01:01:21.259Z,67.03
2018-02-20T01:03:49.623Z,75.07
2018-02-20T01:06:17.959Z,78.47
2018-02-20T01:08:46.290Z,70.43
2018-02-20T01:11:14.650Z,81.47
2018-02-20T01:13:42.992Z,85.93
2018-02-20T01:16:11.361Z,86.60
2018-02-20T01:18:39.759Z,90.30
2018-02-20T01:21:08.098Z,89.57
2018-02-20T01:23:36.461Z,90.10
2018-02-20T01:26:04.802Z,73.53
2018-02-20T01:28:33.141Z,75.70
2018-02-20T01:31:01.473Z,68.80
2018-02-20T01:33:29.888Z,91.27
2018-02-20T01:35:58.245Z,90.43
2018-02-20T01:38:26.600Z,88.23
2018-02-20T01:40:54.955Z,91.07
2018-02-20T01:43:23.300Z,105.17
2018-02-20T01:45:51.717Z,112.10
2018-02-20T01:48:20.103Z,99.67
2018-02-20T01:51:00.114Z,104.70
2018-02-20T01:53:28.445Z,107.43
2018-02-20T01:55:56.792Z,108.30
2018-02-20T01:58:25.152Z,117.50
2018-02-20T02:00:53.500Z,100.80
2018-02-20T02:03:21.875Z,108.67
2018-02-20T02:05:50.200Z,107.23
2018-02-20T02:08:18.616Z,115.37
2018-02-20T02:10:46.964Z,108.73
2018-02-20T02:13:15.298Z,104.57
2018-02-20T02:15:43.676Z,97.87
2018-02-20T02:18:12.060Z,102.20
2018-02-20T02:20:40.384Z,93.60
2018-02-20T02:23:08.713Z,92.50
2018-02-20T02:25:37.060Z,80.67
2018-02-20T02:28:05.424Z,97.10
2018-02-20T02:30:33.792Z,98.93
2018-02-20T02:33:02.182Z,102.60
2018-02-20T02:35:30.540Z,97.30
2018-02-20T02:38:00.903Z,95.13
2018-02-20T02:40:29.270Z,84.67
2018-02-20T02:42:57.595Z,81.97
2018-02-20T02:45:25.926Z,89.47
2018-02-20T02:47:54.294Z,105.77
2018-02-20T02:50:22.640Z,87.00
2018-02-20T02:52:51.020Z,98.53
2018-02-20T02:55:19.350Z,94.20
2018-02-20T02:57:47.693Z,85.73
2018-02-20T03:00:16.032Z,95.23
2018-02-20T03:02:44.373Z,97.00
2018-02-20T03:05:12.697Z,88.63
2018-02-20T03:07:41.045Z,103.07
2018-02-20T03:10:09.462Z,94.40
2018-02-20T03:12:37.784Z,95.33
2018-02-20T03:15:06.124Z,104.20
2018-02-20T03:17:34.471Z,76.70
2018-02-20T03:20:02.826Z,73.63
2018-02-20T03:22:31.157Z,81.40
2018-02-20T03:24:59.548Z,73.30
2018-02-20T03:27:27.888Z,92.70
2018-02-20T03:29:56.246Z,89.70
2018-02-20T03:32:24.641Z,69.43
2018-02-20T03:34:52.956Z,82.77
2018-02-20T03:37:21.369Z,80.57
2018-02-20T03:39:49.714Z,73.73
2018-02-20T03:42:18.060Z,62.83
2018-02-20T03:44:46.391Z,71.73
2018-02-20T03:47:14.715Z,73.30
2018-02-20T03:49:43.096Z,79.80
2018-02-20T03:52:11.424Z,71.90
2018-02-20T03:54:39.870Z,59.00
2018-02-20T03:57:08.235Z,69.33
2018-02-20T03:59:36.576Z,74.60
2018-02-20T04:02:04.932Z,47.77
2018-02-20T04:04:33.287Z,52.60
2018-02-20T04:07:01.655Z,65.50
2018-02-20T04:09:30.032Z,63.67
2018-02-20T04:11:58.450Z,77.07
2018-02-20T04:14:32.728Z,90.73
2018-02-20T04:17:01.078Z,84.03
2018-02-20T04:19:29.439Z,66.47
2018-02-20T04:21:58.493Z,85.77
2018-02-20T04:24:26.875Z,73.10
2018-02-20T04:26:55.241Z,75.83
2018-02-20T04:29:23.591Z,69.20
2018-02-20T04:31:52.047Z,69.00
2018-02-20T04:34:20.388Z,80.40
2018-02-20T04:36:48.777Z,74.50
2018-02-20T04:39:17.121Z,60.03
2018-02-20T04:41:45.483Z,69.57
2018-02-20T04:44:13.871Z,65.13
2018-02-20T04:46:42.248Z,63.13
2018-02-20T04:49:11.476Z,67.83
2018-02-20T04:54:39.214Z,61.53
2018-02-20T04:57:07.560Z,72.63
2018-02-20T04:59:35.897Z,56.57
2018-02-20T05:02:04.271Z,56.97
2018-02-20T05:04:32.681Z,50.07
2018-02-20T05:07:01.129Z,70.00
2018-02-20T05:09:29.441Z,81.30
2018-02-20T05:11:57.781Z,68.60
2018-02-20T05:14:26.139Z,77.73
2018-02-20T05:16:54.481Z,84.80
2018-02-20T05:19:22.841Z,71.33
2018-02-20T05:21:51.176Z,76.30
2018-02-20T05:24:19.581Z,82.30
2018-02-20T05:26:47.907Z,71.90
2018-02-20T05:29:16.282Z,78.97
2018-02-20T05:31:44.830Z,68.70
2018-02-20T05:34:13.267Z,68.80
2018-02-20T05:36:42.309Z,67.67
2018-02-20T05:39:10.633Z,73.03
2018-02-20T05:41:38.974Z,72.00
2018-02-20T05:44:07.327Z,82.93
2018-02-20T05:46:35.664Z,83.27
2018-02-20T05:49:04.060Z,77.63
2018-02-20T05:51:32.387Z,82.67
2018-02-20T05:54:00.746Z,87.27
2018-02-20T05:56:30.112Z,76.17
2018-02-20T05:58:58.464Z,87.53
2018-02-20T06:01:26.827Z,89.40
2018-02-20T06:03:55.365Z,81.00
2018-02-20T06:06:23.748Z,85.13
2018-02-20T06:08:52.422Z,86.83
2018-02-20T06:11:20.799Z,69.70
2018-02-20T06:13:49.168Z,62.30
2018-02-20T06:16:17.659Z,66.10
2018-02-20T06:18:46.102Z,68.70
2018-02-20T06:21:14.485Z,94.00
2018-02-20T06:23:43.052Z,103.67
2018-02-20T06:26:14.316Z,86.70
2018-02-20T06:28:42.706Z,101.27
2018-02-20T06:31:11.339Z,105.87
2018-02-20T06:33:39.681Z,111.10
2018-02-20T06:36:08.119Z,120.00
2018-02-20T06:38:36.491Z,126.47
2018-02-20T06:41:04.948Z,120.70
2018-02-20T06:43:33.402Z,125.67
2018-02-20T06:46:01.792Z,99.00
2018-02-20T06:48:30.182Z,104.00
2018-02-20T06:50:59.061Z,109.07
2018-02-20T06:53:27.445Z,111.90
2018-02-20T06:55:55.892Z,109.67
2018-02-20T06:58:24.290Z,89.20
2018-02-20T07:00:52.674Z,96.77
2018-02-20T07:05:53.566Z,89.50
2018-02-20T07:08:21.913Z,89.43
2018-02-20T07:10:50.331Z,81.13
2018-02-20T07:13:18.765Z,97.93
2018-02-20T07:15:47.215Z,111.60
2018-02-20T07:18:15.821Z,94.77
2018-02-20T07:20:44.190Z,86.20
2018-02-20T07:23:12.655Z,83.63
2018-02-20T07:25:41.104Z,85.40
2018-02-20T07:28:09.501Z,93.73
2018-02-20T07:33:10.440Z,100.70
2018-02-20T07:38:11.696Z,94.20
2018-02-20T07:40:40.178Z,121.97
2018-02-20T07:45:45.710Z,126.87
2018-02-20T07:48:14.286Z,104.73
2018-02-20T07:50:47.722Z,99.00
2018-02-20T07:55:48.668Z,100.50
2018-02-20T07:58:17.333Z,107.23
2018-02-20T08:00:45.658Z,95.83
2018-02-20T08:05:47.614Z,98.53
2018-02-20T08:08:17.927Z,89.63
2018-02-20T08:10:50.072Z,76.47
2018-02-20T08:13:18.648Z,70.07
2018-02-20T08:15:47.045Z,80.87
2018-02-20T08:20:47.979Z,62.03
2018-02-20T08:23:16.509Z,70.90
2018-02-20T08:25:44.989Z,62.30
2018-02-20T08:28:14.262Z,58.53
2018-02-20T08:30:42.685Z,62.87
2018-02-20T08:33:13.519Z,65.60
2018-02-20T08:35:42.934Z,74.97
2018-02-20T08:38:11.419Z,62.03
2018-02-20T08:40:39.818Z,55.20
2018-02-20T08:43:09.017Z,55.80
2018-02-20T08:45:37.427Z,59.40
2018-02-20T08:48:06.429Z,63.20
2018-02-20T08:50:34.969Z,61.93
2018-02-20T08:53:04.336Z,47.50
2018-02-20T08:55:37.054Z,46.97
2018-02-20T08:58:05.879Z,50.53
2018-02-20T09:00:34.297Z,50.87
2018-02-20T09:03:02.740Z,60.83
2018-02-20T09:05:31.235Z,52.57
2018-02-20T09:10:33.855Z,48.33
2018-02-20T09:13:03.496Z,47.37
2018-02-20T09:20:37.933Z,46.53
2018-02-20T09:23:06.554Z,55.77
2018-02-20T09:25:35.033Z,57.50
2018-02-20T09:28:05.422Z,47.83
2018-02-20T09:38:19.506Z,53.20
2018-02-20T09:40:48.024Z,53.47
2018-02-20T09:43:16.476Z,56.33
2018-02-20T09:45:45.001Z,68.07
2018-02-20T09:48:14.052Z,65.60
2018-02-20T09:50:44.226Z,68.80
2018-02-20T09:58:20.923Z,80.57
2018-02-20T10:03:23.487Z,65.30
2018-02-20T10:05:52.061Z,71.43
2018-02-20T10:08:25.003Z,60.90
2018-02-20T10:10:53.904Z,59.97
2018-02-20T10:21:12.719Z,58.93
2018-02-20T10:23:42.954Z,61.20
2018-02-20T10:28:48.431Z,63.90
2018-02-20T10:36:22.710Z,59.47
2018-02-20T10:43:56.588Z,50.90
2018-02-20T10:46:24.979Z,47.73
2018-02-20T10:48:53.415Z,61.97
2018-02-20T10:51:21.854Z,44.43
2018-02-20T10:53:50.568Z,51.43
2018-02-20T10:56:19.161Z,57.13
2018-02-20T10:58:50.044Z,65.20
2018-02-20T11:01:18.763Z,44.50
2018-02-20T11:11:25.655Z,79.87
2018-02-20T11:13:54.069Z,69.03
2018-02-20T11:18:56.058Z,68.17
2018-02-20T11:23:58.148Z,65.27
2018-02-20T11:31:32.298Z,50.13
2018-02-20T11:34:00.797Z,48.43
2018-02-20T11:36:29.248Z,53.37
2018-02-20T11:38:58.704Z,46.03
2018-02-20T11:41:30.598Z,35.77
2018-02-20T11:43:59.168Z,45.83
2018-02-20T11:46:27.561Z,45.57
2018-02-20T11:48:56.005Z,57.40
2018-02-20T11:53:56.951Z,54.53
2018-02-20T11:56:25.658Z,62.73
2018-02-20T11:58:54.141Z,58.93
2018-02-20T12:03:55.030Z,81.53
2018-02-20T12:06:25.168Z,71.10
2018-02-20T12:08:53.600Z,66.00
2018-02-20T12:11:21.912Z,80.60
2018-02-20T12:21:31.450Z,73.93
2018-02-20T12:31:56.633Z,76.17
2018-02-20T12:36:59.461Z,63.53
2018-02-20T12:39:28.686Z,72.97
2018-02-20T12:41:57.181Z,60.07
2018-02-20T12:54:36.271Z,64.40
2018-02-20T12:57:04.905Z,78.97
2018-02-20T12:59:34.241Z,67.20
2018-02-20T13:02:02.975Z,61.07
2018-02-20T13:07:05.053Z,68.33
2018-02-20T13:09:33.393Z,86.17
2018-02-20T13:12:02.175Z,57.23
2018-02-20T13:17:02.976Z,70.93
2018-02-20T13:22:04.082Z,76.30
2018-02-20T13:24:32.494Z,63.87
2018-02-20T13:29:36.008Z,60.33
2018-02-20T13:37:10.756Z,64.70
2018-02-20T13:39:40.605Z,72.97
2018-02-20T13:42:13.177Z,52.00
2018-02-20T13:44:41.536Z,54.33
2018-02-20T13:52:15.712Z,54.47
2018-02-20T13:54:44.755Z,57.47
2018-02-20T14:02:19.694Z,60.93
2018-02-20T14:07:24.345Z,42.27
2018-02-20T14:22:38.905Z,42.93
2018-02-20T14:27:42.493Z,37.53
2018-02-20T14:32:45.649Z,66.50
2018-02-20T14:35:18.209Z,51.53
2018-02-20T14:40:20.192Z,57.37
2018-02-20T14:42:49.964Z,67.63
2018-02-20T14:45:19.688Z,65.93
2018-02-20T14:53:05.603Z,68.20
2018-02-20T15:03:48.556Z,70.60
2018-02-20T15:08:51.195Z,58.67
2018-02-20T15:13:52.734Z,67.57
2018-02-20T15:16:25.218Z,69.00
2018-02-20T15:18:53.847Z,81.40
2018-02-20T15:21:22.687Z,88.30
2018-02-20T15:26:23.971Z,73.03
2018-02-20T15:28:52.425Z,96.63
2018-02-20T15:31:22.144Z,79.00
2018-02-20T15:33:50.671Z,94.67
2018-02-20T15:41:25.474Z,104.20
2018-02-20T15:43:54.287Z,84.83
2018-02-20T15:46:24.604Z,85.33
2018-02-20T15:48:53.049Z,84.20
2018-02-20T15:53:55.994Z,101.47
2018-02-20T15:56:24.405Z,103.63
2018-02-20T16:03:57.900Z,96.70
2018-02-20T16:06:26.352Z,96.03
2018-02-20T16:08:54.746Z,108.97
2018-02-20T16:11:23.764Z,115.20
2018-02-20T16:19:00.023Z,101.30
2018-02-20T16:21:29.224Z,120.80
2018-02-20T16:23:57.789Z,105.63
2018-02-20T16:29:01.746Z,108.13
2018-02-20T16:31:30.488Z,101.73
2018-02-20T16:33:59.637Z,102.40
2018-02-20T16:41:35.825Z,114.23
2018-02-20T16:46:37.785Z,92.03
2018-02-20T16:49:06.298Z,95.43
2018-02-20T16:54:08.210Z,94.73
2018-02-20T16:56:41.274Z,104.73
2018-02-20T16:59:10.078Z,106.80
2018-02-20T17:01:40.394Z,112.00
2018-02-20T17:04:11.554Z,102.40
2018-02-20T17:06:41.742Z,110.87
2018-02-20T17:09:10.617Z,87.13
2018-02-20T17:11:39.668Z,102.43
2018-02-20T17:14:08.875Z,65.07
2018-02-20T17:16:37.393Z,86.97
2018-02-20T17:19:06.146Z,80.17
2018-02-20T17:21:34.941Z,84.57
2018-02-20T17:24:03.352Z,82.27
2018-02-20T17:26:32.261Z,67.67
2018-02-20T17:29:01.450Z,60.83
2018-02-20T17:31:29.852Z,60.87
2018-02-20T17:33:59.230Z,58.03
2018-02-20T17:36:28.493Z,65.07
2018-02-20T17:38:58.847Z,56.13
2018-02-20T17:41:29.469Z,57.40
2018-02-20T17:44:00.142Z,80.03
2018-02-20T17:46:32.143Z,86.73
2018-02-20T17:49:00.825Z,86.20
2018-02-20T17:51:29.295Z,76.60
2018-02-20T17:53:58.165Z,79.27
2018-02-20T17:56:26.577Z,101.33
2018-02-20T17:58:55.218Z,91.70
2018-02-20T18:03:58.129Z,100.20
2018-02-20T18:09:00.396Z,107.57
2018-02-20T18:14:10.638Z,126.00
2018-02-20T18:19:11.601Z,124.83
2018-02-20T18:26:45.787Z,102.43
2018-02-20T18:29:14.306Z,131.00
2018-02-20T18:31:43.185Z,138.47
2018-02-20T18:34:12.667Z,129.80
2018-02-20T18:36:43.402Z,141.67
2018-02-20T18:39:12.358Z,131.07
2018-02-20T18:41:41.083Z,121.77
2018-02-20T18:49:17.342Z,126.73
2018-02-20T18:54:18.241Z,134.77
2018-02-20T19:01:53.348Z,118.27
2018-02-20T19:06:56.392Z,120.20
2018-02-20T19:09:24.933Z,109.23
2018-02-20T19:11:53.810Z,147.80
2018-02-20T19:14:23.668Z,135.87
2018-02-20T19:16:52.679Z,116.27
2018-02-20T19:24:29.234Z,161.87
2018-02-20T19:27:01.405Z,133.93
2018-02-20T19:29:30.318Z,146.70
2018-02-20T19:31:58.715Z,137.27
2018-02-20T19:34:27.108Z,135.40
2018-02-20T19:36:55.509Z,152.07
2018-02-20T19:41:57.674Z,129.57
2018-02-20T19:44:26.846Z,127.60
2018-02-20T19:49:27.733Z,129.77
2018-02-20T19:51:56.266Z,122.83
2018-02-20T19:57:00.393Z,136.63
2018-02-20T19:59:29.206Z,122.80
2018-02-20T20:01:57.585Z,127.93
2018-02-20T20:04:26.104Z,110.30
2018-02-20T20:09:27.850Z,117.77
2018-02-20T20:11:56.210Z,133.13
2018-02-20T20:14:25.061Z,112.33
2018-02-20T20:16:53.384Z,116.83
2018-02-20T20:21:54.365Z,128.40
2018-02-20T20:24:22.714Z,115.53
2018-02-20T20:26:53.237Z,138.40
2018-02-20T20:29:21.682Z,118.93
2018-02-20T20:31:50.086Z,146.83
2018-02-20T20:36:52.087Z,129.23
2018-02-20T20:39:20.452Z,115.50
2018-02-20T20:44:21.798Z,115.10
2018-02-20T20:46:50.176Z,123.97
2018-02-20T20:49:18.561Z,143.77
2018-02-20T20:51:46.978Z,115.77
2018-02-20T20:54:15.396Z,126.87
2018-02-20T20:56:47.747Z,139.90
2018-02-20T20:59:16.338Z,121.87
2018-02-20T21:04:18.417Z,122.23
2018-02-20T21:06:46.916Z,126.60
2018-02-20T21:11:52.223Z,129.13
2018-02-20T21:14:20.755Z,125.87
2018-02-20T21:19:22.716Z,138.40
2018-02-20T21:21:51.101Z,129.10
2018-02-20T21:24:19.422Z,125.83
2018-02-20T21:26:48.688Z,131.47
2018-02-20T21:29:17.044Z,117.70
2018-02-20T21:31:45.403Z,129.20
2018-02-20T21:34:14.028Z,139.27
2018-02-20T21:36:42.386Z,130.30
2018-02-20T21:39:10.872Z,135.70
2018-02-20T21:41:39.244Z,123.87
2018-02-20T21:44:07.688Z,138.43
2018-02-20T21:46:36.024Z,120.40
2018-02-20T21:49:04.376Z,133.70
2018-02-20T21:51:32.733Z,140.20
2018-02-20T21:54:01.929Z,121.60
2018-02-20T21:56:30.461Z,130.60
2018-02-20T21:58:58.843Z,116.20
2018-02-20T22:01:27.248Z,112.63
2018-02-20T22:03:55.732Z,117.10
2018-02-20T22:06:24.207Z,134.53
2018-02-20T22:08:52.596Z,111.00
2018-02-20T22:11:20.952Z,138.10
2018-02-20T22:13:49.383Z,126.47
2018-02-20T22:16:17.848Z,142.47
2018-02-20T22:18:46.189Z,131.80
2018-02-20T22:21:14.544Z,122.10
2018-02-20T22:23:42.897Z,117.20
2018-02-20T22:26:11.252Z,126.80
2018-02-20T22:28:39.624Z,129.30
2018-02-20T22:31:07.976Z,116.50
2018-02-20T22:33:36.370Z,119.10
2018-02-20T22:36:04.708Z,117.17
2018-02-20T22:38:33.088Z,130.53
2018-02-20T22:41:01.464Z,134.33
2018-02-20T22:43:29.812Z,128.57
2018-02-20T22:45:58.202Z,132.03
2018-02-20T22:48:26.519Z,132.33
2018-02-20T22:50:54.879Z,122.37
2018-02-20T22:53:23.232Z,130.60
2018-02-20T22:55:51.596Z,138.63
2018-02-20T22:58:19.952Z,117.27
2018-02-20T23:00:48.298Z,138.27
2018-02-20T23:03:16.815Z,160.10
2018-02-20T23:05:45.191Z,129.80
2018-02-20T23:08:13.557Z,144.57
2018-02-20T23:10:41.909Z,130.63
2018-02-20T23:13:10.256Z,136.70
2018-02-20T23:15:38.617Z,139.70
2018-02-20T23:18:06.982Z,143.67
2018-02-20T23:20:35.326Z,147.67
2018-02-20T23:23:03.695Z,128.23
2018-02-20T23:25:32.032Z,136.63
2018-02-20T23:28:00.378Z,140.53
2018-02-20T23:30:28.959Z,126.13
2018-02-20T23:32:57.307Z,122.60
2018-02-20T23:35:25.644Z,147.50
2018-02-20T23:37:53.978Z,138.13
2018-02-20T23:40:22.321Z,153.57
2018-02-20T23:42:50.666Z,150.40
2018-02-20T23:45:19.029Z,146.03
2018-02-20T23:47:47.408Z,145.87
2018-02-20T23:50:15.828Z,151.03
2018-02-20T23:52:44.156Z,164.43
2018-02-20T23:55:12.504Z,143.60
2018-02-20T23:57:40.844Z,141.07
